Time;durP1;ratioP1;P1;durP2;ratioP2;P2;SDS_P1;SDS_P2;PMS_P1;PMS_P2;Temp;Humidity;BMP_temperature;BMP_pressure;BME280_temperature;BME280_humidity;BME280_pressure;Samples;Min_cycle;Max_cycle;Signal;HPM_P1;HPM_P2
2022/04/06 00:00:23;;;;;;;8.25;2.95;;;;;;;-149.78;100.00;50389.31;5078458;28;20039;-71
2022/04/06 00:02:49;;;;;;;7.10;2.30;;;;;;;-149.78;100.00;50377.56;5075207;28;20036;-70
2022/04/06 00:05:14;;;;;;;11.27;2.30;;;;;;;-149.78;100.00;50369.75;5085545;28;20586;-70
2022/04/06 00:07:41;;;;;;;9.45;2.45;;;;;;;-149.78;100.00;50401.03;5082881;28;20133;-70
2022/04/06 00:10:08;;;;;;;7.18;2.28;;;;;;;-149.78;100.00;50420.59;5078219;28;20028;-70
2022/04/06 00:12:37;;;;;;;10.48;2.67;;;;;;;-149.78;100.00;50432.31;5082032;28;20505;-71
2022/04/06 00:15:05;;;;;;;5.43;2.15;;;;;;;-149.78;100.00;50408.84;5081763;28;20027;-70
2022/04/06 00:17:31;;;;;;;7.22;2.28;;;;;;;-149.78;100.00;50406.91;5084667;28;20119;-70
2022/04/06 00:19:56;;;;;;;8.82;2.28;;;;;;;-149.78;100.00;50385.38;5079061;28;20032;-70
2022/04/06 00:22:22;;;;;;;9.60;2.15;;;;;;;-149.78;100.00;50401.03;5076402;28;20028;-70
2022/04/06 00:24:48;;;;;;;7.40;2.33;;;;;;;-149.78;100.00;50385.38;5081888;28;20040;-70
2022/04/06 00:27:14;;;;;;;7.72;2.55;;;;;;;-149.78;100.00;50389.31;5077948;28;20028;-70
2022/04/06 00:29:40;;;;;;;7.90;2.35;;;;;;;-149.78;100.00;50408.84;5076886;28;20032;-70
2022/04/06 00:32:06;;;;;;;7.90;2.33;;;;;;;-149.78;100.00;50389.31;5081713;28;20028;-70
2022/04/06 00:37:16;;;;;;;4.85;1.60;;;;;;;-149.78;100.00;50391.25;5091398;28;20052;-70
2022/04/06 00:39:41;;;;;;;8.02;2.30;;;;;;;-149.78;100.00;50436.25;5085088;28;20043;-70
2022/04/06 00:42:08;;;;;;;4.72;1.95;;;;;;;-149.78;100.00;50401.03;5079528;28;20033;-70
2022/04/06 00:44:34;;;;;;;7.30;2.03;;;;;;;-149.78;100.00;50383.44;5079396;28;20028;-70
2022/04/06 00:47:03;;;;;;;7.55;1.90;;;;;;;-149.78;100.00;50403.00;5086575;28;20036;-70
2022/04/06 00:49:29;;;;;;;3.88;1.70;;;;;;;-149.78;100.00;50418.63;5074752;28;20080;-70
2022/04/06 00:51:56;;;;;;;3.90;2.08;;;;;;;-149.78;100.00;50397.13;5086689;28;20040;-71
2022/04/06 00:54:23;;;;;;;11.60;2.15;;;;;;;-149.78;100.00;50416.69;5084496;28;20076;-70
2022/04/06 00:56:49;;;;;;;5.10;2.00;;;;;;;-149.78;100.00;50412.78;5082321;28;20387;-70
2022/04/06 00:59:17;;;;;;;5.00;2.15;;;;;;;-149.78;100.00;50403.00;5083355;28;20341;-70
2022/04/06 01:01:47;;;;;;;6.38;2.28;;;;;;;-149.78;100.00;50401.03;5081064;28;20133;-71
2022/04/06 01:04:15;;;;;;;3.17;2.40;;;;;;;-149.78;100.00;50406.91;5095815;28;20036;-70
2022/04/06 01:06:41;;;;;;;6.03;2.80;;;;;;;-149.78;100.00;50424.50;5064222;28;20044;-71
2022/04/06 01:09:07;;;;;;;3.70;2.75;;;;;;;-149.78;100.00;50428.41;5090494;28;20047;-70
2022/04/06 01:11:34;;;;;;;8.10;2.50;;;;;;;-149.78;100.00;50416.69;5089404;28;20040;-70
2022/04/06 01:14:02;;;;;;;7.65;3.00;;;;;;;-149.78;100.00;50393.22;5085756;28;20036;-70
2022/04/06 01:16:28;;;;;;;6.72;3.40;;;;;;;-149.78;100.00;50393.22;5086711;28;20024;-70
2022/04/06 01:18:54;;;;;;;9.60;3.15;;;;;;;-149.78;100.00;50412.78;5079516;28;20040;-71
2022/04/06 01:21:21;;;;;;;5.85;3.35;;;;;;;-149.78;100.00;50408.84;5091560;28;20036;-70
2022/04/06 01:23:47;;;;;;;7.15;3.00;;;;;;;-149.78;100.00;50424.50;5080744;28;20101;-70
2022/04/06 01:26:13;;;;;;;9.88;3.40;;;;;;;-149.78;100.00;50440.16;5085105;28;20025;-70
2022/04/06 01:28:41;;;;;;;8.95;2.70;;;;;;;-149.78;100.00;50424.50;5086269;28;20171;-71
2022/04/06 01:31:07;;;;;;;11.05;3.08;;;;;;;-149.78;100.00;50397.13;5076087;28;20028;-70
2022/04/06 01:33:32;;;;;;;4.43;2.58;;;;;;;-149.78;100.00;50393.22;5090298;28;20020;-70
2022/04/06 01:35:59;;;;;;;4.60;2.20;;;;;;;-149.78;100.00;50408.84;5080583;28;20047;-71
2022/04/06 01:38:25;;;;;;;6.82;1.90;;;;;;;-149.78;100.00;50383.44;5076248;28;20040;-70
2022/04/06 01:40:52;;;;;;;8.18;1.83;;;;;;;-149.78;100.00;50377.56;5061309;28;20495;-71
2022/04/06 01:43:17;;;;;;;2.90;1.58;;;;;;;-149.78;100.00;50426.47;5091634;28;20456;-70
2022/04/06 01:45:43;;;;;;;2.45;1.52;;;;;;;-149.78;100.00;50401.03;5087892;28;20047;-70
2022/04/06 01:48:09;;;;;;;3.65;1.67;;;;;;;-149.78;100.00;50420.59;5083699;28;20024;-70
2022/04/06 01:53:19;;;;;;;5.53;1.52;;;;;;;-149.78;100.00;50428.41;5075403;28;20036;-70
2022/04/06 01:55:45;;;;;;;3.95;1.80;;;;;;;-149.78;100.00;50408.84;5053999;28;20090;-70
2022/04/06 01:58:12;;;;;;;5.10;1.90;;;;;;;-149.78;100.00;50381.47;5073082;28;20043;-70
2022/04/06 02:00:39;;;;;;;4.15;2.03;;;;;;;-149.78;100.00;50408.84;5084995;28;20044;-70
2022/04/06 02:03:05;;;;;;;5.50;2.20;;;;;;;-149.78;100.00;50395.16;5076198;28;20076;-70
2022/04/06 02:05:33;;;;;;;4.60;2.10;;;;;;;-149.78;100.00;50401.03;5076781;28;20035;-71
2022/04/06 02:07:59;;;;;;;6.22;2.25;;;;;;;-149.78;100.00;50403.00;5086760;28;20032;-70
2022/04/06 02:10:25;;;;;;;2.70;1.80;;;;;;;-149.78;100.00;50393.22;5084325;28;20020;-70
2022/04/06 02:12:55;;;;;;;6.70;2.28;;;;;;;-149.78;100.00;50420.59;5094370;28;20499;-71
2022/04/06 02:15:21;;;;;;;8.05;1.92;;;;;;;-149.78;100.00;50412.78;5077335;28;20032;-70
2022/04/06 02:17:48;;;;;;;4.10;2.20;;;;;;;-149.78;100.00;50426.47;5086857;28;20116;-71
2022/04/06 02:20:14;;;;;;;3.85;1.98;;;;;;;-149.78;100.00;50420.59;5082470;28;20040;-71
2022/04/06 02:22:43;;;;;;;3.42;1.77;;;;;;;-149.78;100.00;50420.59;5094347;28;20035;-71
2022/04/06 02:25:12;;;;;;;5.55;1.55;;;;;;;-149.78;100.00;50436.25;5076221;28;20500;-71
2022/04/06 02:27:51;;;;;;;5.95;2.17;;;;;;;-149.78;100.00;50385.38;5089191;28;20037;-71
2022/04/06 02:30:18;;;;;;;5.68;1.95;;;;;;;-149.78;100.00;50422.56;5082954;28;20470;-71
2022/04/06 02:32:44;;;;;;;7.05;2.10;;;;;;;-149.78;100.00;50397.13;5078835;28;20047;-71
2022/04/06 02:35:11;;;;;;;5.80;1.38;;;;;;;-149.78;100.00;50373.66;5090367;28;20036;-71
2022/04/06 02:37:37;;;;;;;3.35;1.42;;;;;;;-149.78;100.00;50416.69;5078349;28;20123;-71
2022/04/06 02:40:04;;;;;;;2.10;1.40;;;;;;;-149.78;100.00;50416.69;5085345;28;20060;-71
2022/04/06 02:42:30;;;;;;;3.80;1.80;;;;;;;-149.78;100.00;50404.94;5084408;28;20028;-71
2022/04/06 02:44:56;;;;;;;3.42;1.60;;;;;;;-149.78;100.00;50410.81;5077596;28;20055;-71
2022/04/06 02:47:21;;;;;;;5.35;1.50;;;;;;;-149.78;100.00;50412.78;5085315;28;20144;-70
2022/04/06 02:49:48;;;;;;;3.65;1.55;;;;;;;-149.78;100.00;50428.41;5092317;28;20025;-71
2022/04/06 02:52:13;;;;;;;3.70;1.30;;;;;;;-149.78;100.00;50420.59;5071763;28;20040;-71
2022/04/06 02:54:39;;;;;;;6.07;1.25;;;;;;;-149.78;100.00;50424.50;5087420;28;20530;-72
2022/04/06 02:57:06;;;;;;;2.65;0.93;;;;;;;-149.78;100.00;50416.69;5088651;28;20063;-71
2022/04/06 02:59:31;;;;;;;3.40;1.30;;;;;;;-149.78;100.00;50428.41;5065671;28;20066;-71
2022/04/06 03:01:57;;;;;;;5.63;1.15;;;;;;;-149.78;100.00;50397.13;5086054;28;20459;-71
2022/04/06 03:04:23;;;;;;;3.67;1.00;;;;;;;-149.78;100.00;50434.28;5084363;28;20445;-71
2022/04/06 03:06:48;;;;;;;3.28;1.10;;;;;;;-149.78;100.00;50414.72;5093471;28;20039;-71
2022/04/06 03:09:14;;;;;;;3.83;1.10;;;;;;;-149.78;100.00;50447.97;5056749;28;20395;-71
2022/04/06 03:11:40;;;;;;;4.30;1.08;;;;;;;-149.78;100.00;50401.03;5069663;28;20036;-70
2022/04/06 03:14:06;;;;;;;4.93;1.73;;;;;;;-149.78;100.00;50399.09;5081995;28;20042;-71
2022/04/06 03:16:32;;;;;;;3.75;1.20;;;;;;;-149.78;100.00;50420.59;5080920;28;20033;-71
2022/04/06 03:18:57;;;;;;;4.20;1.23;;;;;;;-149.78;100.00;50393.22;5087618;28;20442;-71
2022/04/06 03:21:23;;;;;;;5.93;1.35;;;;;;;-149.78;100.00;50432.31;5076266;28;20407;-71
2022/04/06 03:23:49;;;;;;;6.75;1.30;;;;;;;-149.78;100.00;50393.22;5086603;28;20031;-71
2022/04/06 03:26:15;;;;;;;4.45;1.20;;;;;;;-149.78;100.00;50420.59;5082607;28;20435;-71
2022/04/06 03:28:41;;;;;;;4.22;0.95;;;;;;;-149.78;100.00;50397.13;5077904;28;20041;-71
2022/04/06 03:31:07;;;;;;;7.65;1.40;;;;;;;-149.78;100.00;50393.22;5089611;28;20590;-71
2022/04/06 03:33:33;;;;;;;6.57;1.83;;;;;;;-149.78;100.00;50416.69;5087249;28;20052;-71
2022/04/06 03:35:59;;;;;;;6.40;1.27;;;;;;;-149.78;100.00;50416.69;5061888;28;20052;-71
2022/04/06 03:38:25;;;;;;;6.05;0.95;;;;;;;-149.78;100.00;50424.50;5081355;28;20514;-71
2022/04/06 03:40:50;;;;;;;3.53;1.20;;;;;;;-149.78;100.00;50387.34;5077601;28;20369;-71
2022/04/06 03:43:16;;;;;;;6.50;1.40;;;;;;;-149.78;100.00;50410.81;5087705;28;20606;-71
2022/04/06 03:45:42;;;;;;;4.53;1.50;;;;;;;-149.78;100.00;50416.69;5091501;28;20028;-71
2022/04/06 03:48:09;;;;;;;1.83;1.05;;;;;;;-149.78;100.00;50387.34;5083510;28;20380;-70
2022/04/06 03:50:34;;;;;;;5.47;1.17;;;;;;;-149.78;100.00;50408.84;5083754;28;20020;-71
2022/04/06 03:53:00;;;;;;;6.72;1.85;;;;;;;-149.78;100.00;50420.59;5057918;28;20032;-71
2022/04/06 03:55:25;;;;;;;5.18;1.35;;;;;;;-149.78;100.00;50385.38;5092177;28;20036;-70
2022/04/06 03:57:53;;;;;;;6.90;1.35;;;;;;;-149.78;100.00;50422.56;5085343;28;20055;-70
2022/04/06 04:00:19;;;;;;;5.72;1.08;;;;;;;-149.78;100.00;50397.13;5074890;28;20036;-70
2022/04/06 04:02:45;;;;;;;7.35;1.40;;;;;;;-149.78;100.00;50436.25;5085874;28;20043;-71
2022/04/06 04:05:12;;;;;;;4.32;1.42;;;;;;;-149.78;100.00;50424.50;5089853;28;20077;-70
2022/04/06 04:07:37;;;;;;;5.65;0.90;;;;;;;-149.78;100.00;50399.09;5086092;28;20033;-71
2022/04/06 04:10:10;;;;;;;1.90;1.08;;;;;;;-149.78;100.00;50412.78;5080382;28;20039;-71
2022/04/06 04:12:36;;;;;;;4.45;0.82;;;;;;;-149.78;100.00;50426.47;5092324;28;20325;-70
2022/04/06 04:15:03;;;;;;;6.68;1.10;;;;;;;-149.78;100.00;50416.69;5075546;28;20111;-71
2022/04/06 04:17:29;;;;;;;2.15;1.15;;;;;;;-149.78;100.00;50424.50;5071763;28;20511;-70
2022/04/06 04:19:55;;;;;;;3.78;1.10;;;;;;;-149.78;100.00;50420.59;5079050;28;20040;-70
2022/04/06 04:22:22;;;;;;;2.47;0.95;;;;;;;-149.78;100.00;50397.13;5091923;28;20617;-71
2022/04/06 04:24:48;;;;;;;7.20;1.38;;;;;;;-149.78;100.00;50375.63;5076870;28;20473;-71
2022/04/06 04:27:14;;;;;;;2.05;0.90;;;;;;;-149.78;100.00;50401.03;5088569;28;20032;-71
2022/04/06 04:29:40;;;;;;;6.47;1.20;;;;;;;-149.78;100.00;50412.78;5075639;28;20048;-71
2022/04/06 04:32:05;;;;;;;6.57;1.40;;;;;;;-149.78;100.00;50389.31;5048441;28;20127;-71
2022/04/06 04:34:31;;;;;;;4.65;1.40;;;;;;;-149.78;100.00;50408.84;5087032;28;20081;-71
2022/04/06 04:36:58;;;;;;;3.83;1.35;;;;;;;-149.78;100.00;50401.03;5076086;28;20670;-71
2022/04/06 04:39:23;;;;;;;3.83;1.70;;;;;;;-149.78;100.00;50420.59;5070355;28;20150;-72
2022/04/06 04:41:49;;;;;;;9.35;1.40;;;;;;;-149.78;100.00;50426.47;5078172;28;20115;-71
2022/04/06 04:44:15;;;;;;;4.68;1.60;;;;;;;-149.78;100.00;50416.69;5080553;28;20064;-71
2022/04/06 04:46:40;;;;;;;6.72;1.30;;;;;;;-149.78;100.00;50412.78;5084995;28;20031;-70
2022/04/06 04:49:06;;;;;;;6.63;1.38;;;;;;;-149.78;100.00;50436.25;5073702;28;20036;-71
2022/04/06 04:51:31;;;;;;;2.80;1.20;;;;;;;-149.78;100.00;50412.78;5086757;28;20028;-71
2022/04/06 04:53:58;;;;;;;7.43;1.67;;;;;;;-149.78;100.00;50447.97;5079187;28;20040;-72
2022/04/06 04:56:24;;;;;;;7.68;1.73;;;;;;;-149.78;100.00;50422.56;5091673;28;20379;-71
2022/04/06 04:58:51;;;;;;;5.43;1.30;;;;;;;-149.78;100.00;50440.16;5075393;28;20033;-71
2022/04/06 05:01:17;;;;;;;7.28;1.98;;;;;;;-149.78;100.00;50365.84;5088171;28;20124;-71
2022/04/06 05:03:43;;;;;;;5.43;1.92;;;;;;;-149.78;100.00;50455.81;5076826;28;20089;-71
2022/04/06 05:06:09;;;;;;;7.32;1.38;;;;;;;-149.78;100.00;50383.44;5081405;28;20041;-70
2022/04/06 05:08:35;;;;;;;5.57;1.25;;;;;;;-149.78;100.00;50393.22;5062909;28;20029;-71
2022/04/06 05:11:01;;;;;;;10.30;1.20;;;;;;;-149.78;100.00;50387.34;5083344;28;20032;-71
2022/04/06 05:13:26;;;;;;;3.33;1.27;;;;;;;-149.78;100.00;50432.31;5088477;28;20036;-71
2022/04/06 05:15:52;;;;;;;7.20;1.70;;;;;;;-149.78;100.00;50408.84;5077022;28;20036;-71
2022/04/06 05:18:18;;;;;;;5.20;1.75;;;;;;;-149.78;100.00;50451.88;5079355;28;20118;-71
2022/04/06 05:20:44;;;;;;;5.38;1.52;;;;;;;-149.78;100.00;50403.00;5085126;28;20036;-71
2022/04/06 05:23:10;;;;;;;7.32;1.77;;;;;;;-149.78;100.00;50410.81;5074639;28;20068;-70
2022/04/06 05:25:36;;;;;;;4.60;1.35;;;;;;;-149.78;100.00;50393.22;5086739;28;20031;-71
2022/04/06 05:28:02;;;;;;;4.82;1.20;;;;;;;-149.78;100.00;50397.13;5078349;28;20038;-70
2022/04/06 05:30:30;;;;;;;8.93;1.73;;;;;;;-149.78;100.00;50408.84;5079296;28;20036;-70
2022/04/06 05:32:57;;;;;;;6.25;1.48;;;;;;;-149.78;100.00;50408.84;5070106;28;20036;-71
2022/04/06 05:35:26;;;;;;;8.27;1.40;;;;;;;-149.78;100.00;50412.78;5072515;28;20033;-71
2022/04/06 05:37:56;;;;;;;10.88;1.75;;;;;;;-149.78;100.00;50420.59;5087379;28;20111;-70
2022/04/06 05:40:22;;;;;;;8.65;1.40;;;;;;;-149.78;100.00;50432.31;5084217;28;20591;-71
2022/04/06 05:42:47;;;;;;;3.35;1.50;;;;;;;-149.78;100.00;50404.94;5083908;28;20031;-71
2022/04/06 05:45:13;;;;;;;7.15;1.75;;;;;;;-149.78;100.00;50428.41;5080049;28;20033;-71
2022/04/06 05:47:39;;;;;;;6.88;1.50;;;;;;;-149.78;100.00;50408.84;5082035;28;20028;-71
2022/04/06 05:50:07;;;;;;;10.38;1.65;;;;;;;-149.78;100.00;50389.31;5077590;28;20094;-71
2022/04/06 05:52:33;;;;;;;5.35;1.60;;;;;;;-149.78;100.00;50420.59;5088833;28;20102;-70
2022/04/06 05:54:59;;;;;;;5.30;1.42;;;;;;;-149.78;100.00;50393.22;5078014;28;20124;-70
2022/04/06 05:57:25;;;;;;;6.60;1.20;;;;;;;-149.78;100.00;50404.94;5085959;28;20028;-70
2022/04/06 05:59:50;;;;;;;4.20;1.70;;;;;;;-149.78;100.00;50410.81;5085600;28;20085;-70
2022/04/06 06:02:18;;;;;;;6.75;1.27;;;;;;;-149.78;100.00;50424.50;5086242;28;20028;-70
2022/04/06 06:04:44;;;;;;;8.23;1.38;;;;;;;-149.78;100.00;50420.59;5094253;28;20032;-70
2022/04/06 06:07:11;;;;;;;4.72;1.27;;;;;;;-149.78;100.00;50397.13;5061063;28;20056;-70
2022/04/06 06:09:39;;;;;;;3.08;1.38;;;;;;;-149.78;100.00;50408.84;5063127;28;20045;-70
2022/04/06 06:12:04;;;;;;;6.78;2.53;;;;;;;-149.78;100.00;50426.47;5084557;28;20037;-70
2022/04/06 06:14:31;;;;;;;3.63;1.30;;;;;;;-149.78;100.00;50404.94;5082782;28;20089;-70
2022/04/06 06:16:58;;;;;;;6.40;1.20;;;;;;;-149.78;100.00;50451.88;5081477;28;20406;-70
2022/04/06 06:19:24;;;;;;;8.60;1.30;;;;;;;-149.78;100.00;50404.94;5091322;28;20072;-69
2022/04/06 06:21:50;;;;;;;8.00;1.55;;;;;;;-149.78;100.00;50381.47;5091832;28;20028;-69
2022/04/06 06:24:15;;;;;;;5.22;1.08;;;;;;;-149.78;100.00;50451.88;5083972;28;20037;-70
2022/04/06 06:26:44;;;;;;;8.85;1.45;;;;;;;-149.78;100.00;50438.19;5085483;28;20032;-70
2022/04/06 06:29:11;;;;;;;6.50;1.20;;;;;;;-149.78;100.00;50416.69;5075706;28;20074;-70
2022/04/06 06:31:37;;;;;;;7.30;1.27;;;;;;;-149.78;100.00;50432.31;5087628;28;20032;-70
2022/04/06 06:34:03;;;;;;;3.97;1.08;;;;;;;-149.78;100.00;50397.13;5080747;28;20043;-70
2022/04/06 06:36:30;;;;;;;2.35;0.98;;;;;;;-149.78;100.00;50389.31;5078893;28;20048;-70
2022/04/06 06:38:56;;;;;;;6.53;1.67;;;;;;;-149.78;100.00;50408.84;5086423;28;20051;-71
2022/04/06 06:41:22;;;;;;;8.48;1.20;;;;;;;-149.78;100.00;50412.78;5057097;28;20052;-70
2022/04/06 06:43:50;;;;;;;3.90;1.20;;;;;;;-149.78;100.00;50440.16;5087172;28;20039;-71
2022/04/06 06:46:20;;;;;;;11.73;1.42;;;;;;;-149.78;100.00;50432.31;5089736;28;20024;-70
2022/04/06 06:48:46;;;;;;;3.13;1.08;;;;;;;-149.78;100.00;50418.63;5090932;28;20032;-69
2022/04/06 06:51:13;;;;;;;5.65;1.45;;;;;;;-149.78;100.00;50381.47;5072873;28;20025;-70
2022/04/06 06:53:39;;;;;;;6.53;1.23;;;;;;;-149.78;100.00;50424.50;5079199;28;20032;-70
2022/04/06 06:56:05;;;;;;;3.72;1.30;;;;;;;-149.78;100.00;50377.56;5078530;28;20440;-69
2022/04/06 06:58:31;;;;;;;7.72;1.17;;;;;;;-149.78;100.00;50381.47;5073962;28;20024;-72
2022/04/06 07:00:57;;;;;;;7.03;1.17;;;;;;;-149.78;100.00;50326.72;5080366;28;20488;-72
2022/04/06 07:03:22;;;;;;;6.55;1.20;;;;;;;-149.78;100.00;50354.09;5079899;28;20491;-73
2022/04/06 07:05:48;;;;;;;3.50;0.85;;;;;;;-149.78;100.00;50326.72;5075158;28;20040;-72
2022/04/06 07:08:14;;;;;;;10.30;1.60;;;;;;;-149.78;100.00;50301.28;5083989;28;20465;-72
2022/04/06 07:10:44;;;;;;;5.47;1.02;;;;;;;-149.78;100.00;50322.81;5084220;28;20028;-72
2022/04/06 07:13:12;;;;;;;1.55;0.93;;;;;;;-149.78;100.00;50326.72;5083022;28;20051;-72
2022/04/06 07:15:41;;;;;;;3.83;1.20;;;;;;;-149.78;100.00;50271.97;5091039;28;20035;-72
2022/04/06 07:18:11;;;;;;;5.72;1.30;;;;;;;-149.78;100.00;50334.53;5083567;28;20040;-72
2022/04/06 07:20:38;;;;;;;2.85;0.80;;;;;;;-149.78;100.00;50307.16;5084846;28;20054;-72
2022/04/06 07:23:04;;;;;;;1.25;0.80;;;;;;;-149.78;100.00;50305.22;5091578;28;20028;-71
2022/04/06 07:25:30;;;;;;;4.78;1.10;;;;;;;-149.78;100.00;50260.22;5088058;28;20035;-71
2022/04/06 07:27:56;;;;;;;5.53;1.00;;;;;;;-149.78;100.00;50303.25;5080439;28;20040;-71
2022/04/06 07:30:22;;;;;;;5.60;1.00;;;;;;;-149.78;100.00;50291.50;5081969;28;20024;-71
2022/04/06 07:32:48;;;;;;;9.10;1.10;;;;;;;-149.78;100.00;50271.97;5087302;28;20039;-71
2022/04/06 07:35:16;;;;;;;5.30;1.25;;;;;;;-149.78;100.00;50293.47;5074790;28;20097;-72
2022/04/06 07:37:50;;;;;;;7.15;1.25;;;;;;;-149.78;100.00;50250.44;5077869;28;20368;-72
2022/04/06 07:40:18;;;;;;;6.93;1.40;;;;;;;-149.78;100.00;50268.03;5082528;28;20028;-71
2022/04/06 07:42:44;;;;;;;9.02;1.33;;;;;;;-149.78;100.00;50297.38;5086688;28;20062;-71
2022/04/06 07:45:13;;;;;;;7.35;1.10;;;;;;;-149.78;100.00;50260.22;5074994;28;20365;-73
2022/04/06 07:47:41;;;;;;;4.97;1.13;;;;;;;-149.78;100.00;50264.13;5076373;28;20115;-71
2022/04/06 07:50:08;;;;;;;5.00;1.25;;;;;;;-149.78;100.00;50264.13;5091462;28;20107;-72
2022/04/06 07:52:35;;;;;;;4.60;0.98;;;;;;;-149.78;100.00;50299.34;5078829;28;20036;-72
2022/04/06 07:55:02;;;;;;;5.57;1.30;;;;;;;-149.78;100.00;50260.22;5087571;28;20036;-72
2022/04/06 07:57:28;;;;;;;4.30;1.13;;;;;;;-149.78;100.00;50248.50;5074584;28;20039;-71
2022/04/06 07:59:55;;;;;;;4.70;1.10;;;;;;;-149.78;100.00;50303.25;5083443;28;20032;-71
2022/04/06 08:02:21;;;;;;;6.38;1.20;;;;;;;-149.78;100.00;50305.22;5082039;28;20054;-71
2022/04/06 08:04:47;;;;;;;8.75;1.55;;;;;;;-149.78;100.00;50287.59;5090043;28;20032;-71
2022/04/06 08:07:12;;;;;;;4.43;1.55;;;;;;;-149.78;100.00;50299.34;5077379;28;20024;-71
2022/04/06 08:09:38;;;;;;;10.07;2.10;;;;;;;-149.78;100.00;50318.91;5092478;28;20034;-71
2022/04/06 08:12:04;;;;;;;4.88;1.17;;;;;;;-149.78;100.00;50299.34;5082653;28;20503;-69
2022/04/06 08:14:30;;;;;;;7.32;1.30;;;;;;;-149.78;100.00;50299.34;5084024;28;20051;-69
2022/04/06 08:16:57;;;;;;;5.88;1.40;;;;;;;-149.78;100.00;50299.34;5074970;28;20032;-70
2022/04/06 08:19:23;;;;;;;3.38;1.45;;;;;;;-149.78;100.00;50313.03;5088367;28;20468;-69
2022/04/06 08:21:51;;;;;;;3.80;1.17;;;;;;;-149.78;100.00;50322.81;5078176;28;20035;-69
2022/04/06 08:24:17;;;;;;;6.18;1.35;;;;;;;-149.78;100.00;50291.50;5081619;28;20056;-69
2022/04/06 08:26:43;;;;;;;5.03;1.40;;;;;;;-149.78;100.00;50307.16;5085568;28;20139;-69
2022/04/06 08:29:09;;;;;;;7.20;1.42;;;;;;;-149.78;100.00;50242.63;5057086;28;20051;-69
2022/04/06 08:31:35;;;;;;;7.13;1.13;;;;;;;-149.78;100.00;50271.97;5086236;28;20040;-69
2022/04/06 08:34:03;;;;;;;3.25;1.08;;;;;;;-149.78;100.00;50307.16;5078410;28;20055;-69
2022/04/06 08:36:29;;;;;;;6.72;1.20;;;;;;;-149.78;100.00;50275.88;5079821;28;20133;-69
2022/04/06 08:38:55;;;;;;;4.05;1.38;;;;;;;-149.78;100.00;50260.22;5087253;28;20036;-69
2022/04/06 08:41:26;;;;;;;4.07;1.17;;;;;;;-149.78;100.00;50246.53;5056828;28;20032;-69
2022/04/06 08:43:53;;;;;;;4.97;1.02;;;;;;;-149.78;100.00;50225.03;5083545;28;20040;-69
2022/04/06 08:46:20;;;;;;;3.42;0.98;;;;;;;-149.78;100.00;50244.59;5082134;28;20062;-68
2022/04/06 08:48:51;;;;;;;4.53;1.20;;;;;;;-149.78;100.00;50256.31;5042590;28;20044;-69
2022/04/06 08:51:19;;;;;;;3.77;1.00;;;;;;;-149.78;100.00;50228.94;5079992;28;20046;-69
2022/04/06 08:53:46;;;;;;;3.72;0.88;;;;;;;-149.78;100.00;50246.53;5079028;28;20488;-69
2022/04/06 08:56:13;;;;;;;5.57;1.10;;;;;;;-149.78;100.00;50189.81;5077421;28;20040;-69
2022/04/06 08:58:39;;;;;;;4.53;1.00;;;;;;;-149.78;100.00;50205.47;5081535;28;20036;-69
2022/04/06 09:01:05;;;;;;;2.20;0.70;;;;;;;-149.78;95.99;50162.44;5076647;28;20119;-70
2022/04/06 09:03:31;;;;;;;4.72;1.52;;;;;;;-149.78;80.72;50123.34;5079951;28;20060;-69
2022/04/06 09:06:01;;;;;;;2.97;0.90;;;;;;;-149.78;68.29;50117.47;5073577;28;20474;-69
2022/04/06 09:08:35;;;;;;;2.83;1.08;;;;;;;-149.78;57.84;50049.03;5079982;28;20028;-68
2022/04/06 09:11:19;;;;;;;2.80;0.90;;;;;;;-149.78;53.27;50084.22;5077037;28;20035;-68
2022/04/06 09:13:46;;;;;;;4.50;0.75;;;;;;;-149.78;49.97;50080.31;5076669;28;20021;-68
2022/04/06 09:16:15;;;;;;;4.45;1.00;;;;;;;-149.78;50.46;50082.25;5082533;28;20038;-68
2022/04/06 09:18:44;;;;;;;3.30;0.90;;;;;;;-149.78;49.28;50064.66;5079619;28;20047;-68
2022/04/06 09:21:13;;;;;;;2.90;1.17;;;;;;;-149.78;49.02;50115.50;5078345;28;20048;-68
2022/04/06 09:23:39;;;;;;;3.42;0.85;;;;;;;-149.78;46.34;50052.94;5083157;28;20454;-68
2022/04/06 09:26:11;;;;;;;0.98;0.60;;;;;;;-149.78;46.42;50088.13;5076458;28;20028;-68
2022/04/06 09:28:47;;;;;;;;;;;;;;;-149.78;46.31;50084.22;5080829;28;20141;-69
2022/04/06 09:31:15;;;;;;;4.88;0.80;;;;;;;-149.78;44.29;50095.94;5086376;28;20010;-68
2022/04/06 09:33:41;;;;;;;3.08;1.00;;;;;;;-149.78;45.59;50056.84;5077506;28;20036;-68
2022/04/06 09:36:18;;;;;;;3.00;0.88;;;;;;;-149.78;45.62;50095.94;5084109;28;20127;-69
2022/04/06 09:38:48;;;;;;;4.57;0.90;;;;;;;-149.78;45.15;50078.34;5094116;28;20127;-68
2022/04/06 09:41:14;;;;;;;2.28;1.00;;;;;;;-149.78;43.46;50060.75;5090331;28;20028;-68
2022/04/06 09:43:40;;;;;;;3.67;0.80;;;;;;;-149.78;43.94;50092.03;5080937;28;20129;-69
2022/04/06 09:49:14;;;;;;;4.45;1.23;;;;;;;-149.78;48.91;50144.84;5087362;28;20036;-68
2022/04/06 09:51:42;;;;;;;3.05;1.33;;;;;;;-149.78;50.06;50092.03;5084236;28;20036;-68
2022/04/06 09:54:09;;;;;;;4.07;1.17;;;;;;;-149.78;47.77;50080.31;5086992;28;20039;-68
2022/04/06 09:56:36;;;;;;;2.45;0.75;;;;;;;-149.78;49.37;50097.91;5088284;28;20103;-68
2022/04/06 09:59:03;;;;;;;2.25;0.90;;;;;;;-149.78;49.98;50129.19;5091807;28;20039;-68
2022/04/06 10:01:34;;;;;;;2.25;0.93;;;;;;;-149.78;52.63;50138.97;5087300;28;21348;-68
2022/04/06 10:04:05;;;;;;;2.05;0.90;;;;;;;-149.78;54.18;50209.38;5087346;28;20083;-68
2022/04/06 10:06:36;;;;;;;4.05;0.90;;;;;;;-149.78;60.03;50213.28;5090591;28;20036;-68
2022/04/06 10:09:04;;;;;;;2.10;0.90;;;;;;;-149.78;67.02;50238.72;5083748;28;20060;-67
2022/04/06 10:11:30;;;;;;;2.58;0.85;;;;;;;-149.78;72.32;50264.13;5089970;28;20425;-68
2022/04/06 10:13:57;;;;;;;3.35;0.93;;;;;;;-149.78;80.06;50283.69;5073002;28;20063;-68
2022/04/06 10:16:24;;;;;;;3.45;0.93;;;;;;;-149.78;99.56;50301.28;5087687;28;20028;-68
2022/04/06 10:18:52;;;;;;;4.80;1.35;;;;;;;-149.78;100.00;50285.66;5084598;28;20487;-68
2022/04/06 10:21:41;;;;;;;5.20;1.00;;;;;;;-149.78;100.00;50295.44;5083539;28;20039;-68
2022/04/06 10:24:19;;;;;;;3.17;1.20;;;;;;;-149.78;100.00;50283.69;5083545;28;20119;-68
2022/04/06 10:26:48;;;;;;;2.35;0.73;;;;;;;-149.78;100.00;50307.16;5080953;28;20056;-68
2022/04/06 10:29:14;;;;;;;4.13;1.13;;;;;;;-149.78;100.00;50303.25;5084736;28;20387;-68
2022/04/06 10:31:41;;;;;;;4.32;0.60;;;;;;;-149.78;100.00;50369.75;5090387;28;20036;-69
2022/04/06 10:34:32;;;;;;;1.75;0.65;;;;;;;-149.78;100.00;50332.59;5084639;28;20044;-68
2022/04/06 10:37:10;;;;;;;2.85;0.60;;;;;;;-149.78;100.00;50348.22;5088054;28;20044;-68
2022/04/06 10:39:51;;;;;;;1.38;0.50;;;;;;;-149.78;100.00;50350.19;5076443;28;20111;-70
2022/04/06 10:42:29;;;;;;;2.22;0.50;;;;;;;-149.78;100.00;50342.38;5083093;28;20147;-70
2022/04/06 10:44:55;;;;;;;1.40;0.50;;;;;;;-149.78;100.00;50336.50;5082305;28;20032;-70
2022/04/06 10:47:23;;;;;;;2.63;0.60;;;;;;;-149.78;100.00;50330.63;5073313;28;20032;-69
2022/04/06 10:50:07;;;;;;;1.25;0.40;;;;;;;-149.78;100.00;50350.19;5084144;28;20032;-70
2022/04/06 10:52:33;;;;;;;0.85;0.55;;;;;;;-149.78;100.00;50336.50;5079273;28;20028;-70
2022/04/06 10:55:08;;;;;;;0.50;0.47;;;;;;;-149.78;100.00;50330.63;5093023;28;20352;-69
2022/04/06 10:57:55;;;;;;;0.30;0.30;;;;;;;-149.78;100.00;50365.84;5076389;28;20513;-69
2022/04/06 11:00:21;;;;;;;0.22;0.22;;;;;;;-149.78;100.00;50336.50;5082124;28;20067;-69
2022/04/06 11:02:52;;;;;;;0.40;0.40;;;;;;;-149.78;100.00;50381.47;5086274;28;20040;-69
2022/04/06 11:05:40;;;;;;;1.48;0.35;;;;;;;-149.78;100.00;50408.84;5075913;28;20033;-69
2022/04/06 11:10:51;;;;;;;0.20;0.20;;;;;;;-149.78;100.00;50397.13;5083770;28;20032;-69
2022/04/06 11:13:25;;;;;;;1.25;0.40;;;;;;;-149.78;100.00;50373.66;5075161;28;20046;-70
2022/04/06 11:15:51;;;;;;;0.38;0.10;;;;;;;-149.78;100.00;50393.22;5078974;28;20035;-70
2022/04/06 11:18:50;;;;;;;0.20;0.20;;;;;;;-149.78;100.00;50369.75;5059837;28;20414;-70
2022/04/06 11:21:16;;;;;;;0.73;0.30;;;;;;;-149.78;100.00;50379.53;5082017;28;20064;-70